createdAt,value
2022-08-23T00:00:51.091Z,3.77
2022-08-23T00:03:23.179Z,4.00
2022-08-23T00:05:55.272Z,5.03
2022-08-23T00:08:27.473Z,5.80
2022-08-23T00:11:00.714Z,7.80
2022-08-23T00:13:47.306Z,12.23
2022-08-23T00:16:26.285Z,7.13
2022-08-23T00:18:59.368Z,4.50
2022-08-23T00:21:32.609Z,5.07
2022-08-23T00:24:07.498Z,6.67
2022-08-23T00:27:01.504Z,7.00
2022-08-23T00:29:49.413Z,7.63
2022-08-23T00:32:26.666Z,5.97
2022-08-23T00:35:26.601Z,5.97
2022-08-23T00:38:32.015Z,4.87
2022-08-23T00:40:53.405Z,5.00
2022-08-23T00:43:52.921Z,4.10
2022-08-23T00:47:11.811Z,4.60
2022-08-23T00:50:03.542Z,4.27
2022-08-23T00:53:06.785Z,4.40
2022-08-23T00:55:54.455Z,4.70
2022-08-23T00:58:30.710Z,4.83
2022-08-23T01:01:05.671Z,5.63
2022-08-23T01:03:40.844Z,4.77
2022-08-23T01:06:24.116Z,5.27
2022-08-23T01:09:09.252Z,4.67
2022-08-23T01:12:04.789Z,4.83
2022-08-23T01:15:20.170Z,4.73
2022-08-23T01:18:07.110Z,7.17
2022-08-23T01:20:54.858Z,5.37
2022-08-23T01:23:51.619Z,6.23
2022-08-23T01:26:28.308Z,7.53
2022-08-23T01:29:06.552Z,4.70
2022-08-23T01:31:38.885Z,4.93
2022-08-23T01:34:13.756Z,5.10
2022-08-23T01:36:48.457Z,4.53
2022-08-23T01:39:20.437Z,4.43
2022-08-23T01:41:52.848Z,4.83
2022-08-23T01:44:24.845Z,5.07
2022-08-23T01:47:00.528Z,7.27
2022-08-23T01:49:34.680Z,5.63
2022-08-23T01:52:06.902Z,5.20
2022-08-23T01:54:41.006Z,5.22
2022-08-23T01:57:13.418Z,5.83
2022-08-23T01:59:45.826Z,5.57
2022-08-23T02:02:17.835Z,5.80
2022-08-23T02:04:50.615Z,5.63
2022-08-23T02:07:27.313Z,5.97
2022-08-23T02:09:59.707Z,5.40
2022-08-23T02:12:31.892Z,6.80
2022-08-23T02:15:05.005Z,6.03
2022-08-23T02:17:37.839Z,5.77
2022-08-23T02:20:10.261Z,5.63
2022-08-23T02:22:42.926Z,5.87
2022-08-23T02:25:15.433Z,5.87
2022-08-23T02:27:47.916Z,5.57
2022-08-23T02:30:19.983Z,5.97
2022-08-23T02:32:52.035Z,6.43
2022-08-23T02:35:24.591Z,7.00
2022-08-23T02:37:56.995Z,7.20
2022-08-23T02:40:28.949Z,6.97
2022-08-23T02:43:01.235Z,6.72
2022-08-23T02:45:34.627Z,6.78
2022-08-23T02:48:08.934Z,6.90
2022-08-23T02:50:40.935Z,5.63
2022-08-23T02:53:13.202Z,6.30
2022-08-23T02:55:49.244Z,6.27
2022-08-23T02:58:21.472Z,6.57
2022-08-23T03:00:54.542Z,6.23
2022-08-23T03:03:27.029Z,6.43
2022-08-23T03:06:24.889Z,5.88
2022-08-23T03:08:51.780Z,5.63
2022-08-23T03:11:25.246Z,6.60
2022-08-23T03:13:57.617Z,6.20
2022-08-23T03:16:29.918Z,7.30
2022-08-23T03:19:02.296Z,6.15
2022-08-23T03:21:36.045Z,6.07
2022-08-23T03:24:10.504Z,5.87
2022-08-23T03:26:46.115Z,5.93
2022-08-23T03:29:19.523Z,5.15
2022-08-23T03:31:51.679Z,5.83
2022-08-23T03:34:26.028Z,5.80
2022-08-23T03:36:58.985Z,6.23
2022-08-23T03:39:31.421Z,5.93
2022-08-23T03:42:03.908Z,6.10
2022-08-23T03:44:36.438Z,5.30
2022-08-23T03:47:08.932Z,5.50
2022-08-23T03:49:41.411Z,5.95
2022-08-23T03:52:14.042Z,6.43
2022-08-23T03:54:46.082Z,5.55
2022-08-23T03:57:18.050Z,5.82
2022-08-23T03:59:50.120Z,7.18
2022-08-23T04:02:22.354Z,7.80
2022-08-23T04:04:55.078Z,6.35
2022-08-23T04:07:29.047Z,7.00
2022-08-23T04:10:01.079Z,6.30
2022-08-23T04:12:33.276Z,6.80
2022-08-23T04:15:06.284Z,7.00
2022-08-23T04:17:42.897Z,8.52
2022-08-23T04:20:15.545Z,6.75
2022-08-23T04:22:52.395Z,6.35
2022-08-23T04:25:34.443Z,6.93
2022-08-23T04:28:07.506Z,7.70
2022-08-23T04:30:39.896Z,7.50
2022-08-23T04:33:17.681Z,6.95
2022-08-23T04:35:50.114Z,6.60
2022-08-23T04:38:25.185Z,9.80
2022-08-23T04:41:16.689Z,7.60
2022-08-23T04:44:08.519Z,6.90
2022-08-23T04:46:40.829Z,7.80
2022-08-23T04:49:33.614Z,7.60
2022-08-23T04:52:05.732Z,8.15
2022-08-23T04:54:37.939Z,8.10
2022-08-23T04:57:10.025Z,7.90
2022-08-23T04:59:42.900Z,7.60
2022-08-23T05:02:14.947Z,8.35
2022-08-23T05:04:47.074Z,8.38
2022-08-23T05:07:19.062Z,7.07
2022-08-23T05:09:51.082Z,7.63
2022-08-23T05:12:23.567Z,7.82
2022-08-23T05:14:55.578Z,6.68
2022-08-23T05:17:28.792Z,7.15
2022-08-23T05:20:01.594Z,6.20
2022-08-23T05:22:35.956Z,7.20
2022-08-23T05:25:10.828Z,7.27
2022-08-23T05:27:42.982Z,9.23
2022-08-23T05:30:15.654Z,8.02
2022-08-23T05:32:48.256Z,7.95
2022-08-23T05:35:20.379Z,8.57
2022-08-23T05:37:52.541Z,7.13
2022-08-23T05:40:24.563Z,6.72
2022-08-23T05:42:58.498Z,7.87
2022-08-23T05:45:30.452Z,10.63
2022-08-23T05:48:02.905Z,6.63
2022-08-23T05:50:38.231Z,7.53
2022-08-23T05:53:10.986Z,6.45
2022-08-23T05:55:43.589Z,7.10
2022-08-23T05:58:15.820Z,6.70
2022-08-23T06:00:48.135Z,7.10
2022-08-23T06:03:20.268Z,7.00
2022-08-23T06:05:57.688Z,7.40
2022-08-23T06:08:31.143Z,6.97
2022-08-23T06:11:11.356Z,8.70
2022-08-23T06:13:51.733Z,8.07
2022-08-23T06:16:34.298Z,6.47
2022-08-23T06:19:11.231Z,9.33
2022-08-23T06:21:44.516Z,5.97
2022-08-23T06:24:16.866Z,6.33
2022-08-23T06:26:49.822Z,10.93
2022-08-23T06:29:22.320Z,7.90
2022-08-23T06:31:54.586Z,5.77
2022-08-23T06:34:33.636Z,6.77
2022-08-23T06:37:15.287Z,6.13
2022-08-23T06:39:47.618Z,5.43
2022-08-23T06:42:38.516Z,5.00
2022-08-23T06:45:11.250Z,3.60
2022-08-23T06:47:45.072Z,4.67
2022-08-23T06:50:18.241Z,4.40
2022-08-23T06:52:50.788Z,4.37
2022-08-23T06:55:23.945Z,4.20
2022-08-23T06:57:56.290Z,6.77
2022-08-23T07:00:28.509Z,5.17
2022-08-23T07:03:00.852Z,4.17
2022-08-23T07:05:32.994Z,3.90
2022-08-23T07:08:05.051Z,4.20
2022-08-23T07:10:37.069Z,5.63
2022-08-23T07:13:09.174Z,4.23
2022-08-23T07:15:41.253Z,4.50
2022-08-23T07:18:13.692Z,3.87
2022-08-23T07:20:45.806Z,4.87
2022-08-23T07:23:17.823Z,4.37
2022-08-23T07:25:49.898Z,6.30
2022-08-23T07:28:22.820Z,4.77
2022-08-23T07:31:14.696Z,4.53
2022-08-23T07:33:51.748Z,4.03
2022-08-23T07:36:28.015Z,8.23
2022-08-23T07:39:02.097Z,4.63
2022-08-23T07:41:38.796Z,4.60
2022-08-23T07:44:30.716Z,5.83
2022-08-23T07:47:05.161Z,5.13
2022-08-23T07:49:37.455Z,4.40
2022-08-23T07:52:12.013Z,8.20
2022-08-23T07:54:48.236Z,4.73
2022-08-23T07:57:21.461Z,6.60
2022-08-23T07:59:53.682Z,5.10
2022-08-23T08:02:25.823Z,4.03
2022-08-23T08:04:57.913Z,4.00
2022-08-23T08:07:31.476Z,3.80
2022-08-23T08:10:08.098Z,4.27
2022-08-23T08:12:40.213Z,3.70
2022-08-23T08:15:12.475Z,3.50
2022-08-23T08:17:48.325Z,4.17
2022-08-23T08:20:22.074Z,4.40
2022-08-23T08:22:59.013Z,4.20
2022-08-23T08:25:34.330Z,4.10
2022-08-23T08:28:06.471Z,6.73
2022-08-23T08:30:39.270Z,4.53
2022-08-23T08:33:11.407Z,5.47
2022-08-23T08:35:46.857Z,6.00
2022-08-23T08:38:30.882Z,3.20
2022-08-23T08:41:18.023Z,3.27
2022-08-23T08:44:28.372Z,3.90
2022-08-23T08:47:36.571Z,3.60
2022-08-23T08:50:31.739Z,4.40
2022-08-23T08:53:15.296Z,3.50
2022-08-23T08:55:59.601Z,4.63
2022-08-23T08:58:50.935Z,4.23
2022-08-23T09:01:26.691Z,3.70
2022-08-23T09:04:00.750Z,3.30
2022-08-23T09:06:41.717Z,4.03
2022-08-23T09:09:58.954Z,2.83
2022-08-23T09:13:26.957Z,3.20
2022-08-23T09:16:40.075Z,3.43
2022-08-23T09:19:35.042Z,4.17
2022-08-23T09:22:51.253Z,7.13
2022-08-23T09:25:35.559Z,3.30
2022-08-23T09:28:08.046Z,4.43
2022-08-23T09:30:54.599Z,3.20
2022-08-23T09:33:43.158Z,4.13
2022-08-23T09:36:23.347Z,3.03
2022-08-23T09:39:19.364Z,2.67
2022-08-23T09:41:57.944Z,3.00
2022-08-23T09:44:42.850Z,2.67
2022-08-23T09:47:17.241Z,2.57
2022-08-23T09:49:51.397Z,2.47
2022-08-23T09:52:32.366Z,2.47
2022-08-23T09:55:25.373Z,3.10
2022-08-23T09:58:32.334Z,2.47
2022-08-23T10:01:38.745Z,2.30
2022-08-23T10:04:15.620Z,2.53
2022-08-23T10:06:54.243Z,2.50
2022-08-23T10:09:32.994Z,2.40
2022-08-23T10:12:05.069Z,3.23
2022-08-23T10:14:39.722Z,2.43
2022-08-23T10:17:50.721Z,2.33
2022-08-23T10:20:53.629Z,2.10
2022-08-23T10:23:44.084Z,2.33
2022-08-23T10:26:31.087Z,4.40
2022-08-23T10:29:33.858Z,3.37
2022-08-23T10:32:19.033Z,2.40
2022-08-23T10:35:16.600Z,2.60
2022-08-23T10:38:23.428Z,1.90
2022-08-23T10:41:31.204Z,6.50
2022-08-23T10:44:27.816Z,2.90
2022-08-23T10:47:16.384Z,2.40
2022-08-23T10:50:13.084Z,2.17
2022-08-23T10:52:55.226Z,2.90
2022-08-23T10:56:03.082Z,5.10
2022-08-23T10:58:52.075Z,3.57
2022-08-23T11:01:56.893Z,4.60
2022-08-23T11:05:10.358Z,2.70
2022-08-23T11:08:11.215Z,2.47
2022-08-23T11:11:02.964Z,7.53
2022-08-23T11:13:35.534Z,3.57
2022-08-23T11:16:15.334Z,2.30
2022-08-23T11:18:57.410Z,2.07
2022-08-23T11:21:33.414Z,2.10
2022-08-23T11:24:15.594Z,2.20
2022-08-23T11:27:07.771Z,3.77
2022-08-23T11:29:41.361Z,4.40
2022-08-23T11:32:17.238Z,3.13
2022-08-23T11:35:24.781Z,2.43
2022-08-23T11:38:06.688Z,3.27
2022-08-23T11:41:00.115Z,2.37
2022-08-23T11:43:45.515Z,4.10
2022-08-23T11:46:36.279Z,2.27
2022-08-23T11:49:41.379Z,2.20
2022-08-23T11:53:18.325Z,2.33
2022-08-23T11:56:26.632Z,2.30
2022-08-23T11:59:21.209Z,2.60
2022-08-23T12:02:33.434Z,2.90
2022-08-23T12:05:32.501Z,2.80
2022-08-23T12:08:32.555Z,2.83
2022-08-23T12:11:25.950Z,2.37
2022-08-23T12:14:45.310Z,2.67
2022-08-23T12:17:26.038Z,2.43
2022-08-23T12:20:28.492Z,5.27
2022-08-23T12:23:13.256Z,2.57
2022-08-23T12:26:06.966Z,3.57
2022-08-23T12:28:56.364Z,2.63
2022-08-23T12:31:47.139Z,2.40
2022-08-23T12:34:47.858Z,2.27
2022-08-23T12:37:53.677Z,3.10
2022-08-23T12:40:56.704Z,2.97
2022-08-23T12:43:30.719Z,3.93
2022-08-23T12:46:03.587Z,2.40
2022-08-23T12:48:46.609Z,2.10
2022-08-23T12:51:18.711Z,2.20
2022-08-23T12:53:50.901Z,2.20
2022-08-23T12:56:31.591Z,2.20
2022-08-23T12:59:06.825Z,3.70
2022-08-23T13:01:58.640Z,2.30
2022-08-23T13:04:35.866Z,3.00
2022-08-23T13:07:17.630Z,2.50
2022-08-23T13:09:55.485Z,4.47
2022-08-23T13:12:28.295Z,7.80
2022-08-23T13:15:02.713Z,2.50
2022-08-23T13:17:39.995Z,4.30
2022-08-23T13:20:22.565Z,2.60
2022-08-23T13:23:02.150Z,1.90
2022-08-23T13:25:40.871Z,2.33
2022-08-23T13:28:31.099Z,2.43
2022-08-23T13:31:08.061Z,2.40
2022-08-23T13:33:40.907Z,2.07
2022-08-23T13:36:23.442Z,3.63
2022-08-23T13:38:55.594Z,2.30
2022-08-23T13:41:38.573Z,2.10
2022-08-23T13:44:19.070Z,2.17
2022-08-23T13:46:51.473Z,2.27
2022-08-23T13:49:28.680Z,3.07
2022-08-23T13:52:41.555Z,2.50
2022-08-23T13:55:01.886Z,2.30
2022-08-23T13:57:37.133Z,2.30
2022-08-23T14:00:10.789Z,2.27
2022-08-23T14:02:44.446Z,2.47
2022-08-23T14:05:22.605Z,2.60
2022-08-23T14:07:56.426Z,2.50
2022-08-23T14:10:28.665Z,2.43
2022-08-23T14:13:02.130Z,2.03
2022-08-23T14:18:32.435Z,2.30
2022-08-23T14:21:05.113Z,2.70
2022-08-23T14:23:37.230Z,2.17
2022-08-23T14:26:13.864Z,2.13
2022-08-23T14:28:48.073Z,2.10
2022-08-23T14:31:26.840Z,2.30
2022-08-23T14:34:02.016Z,4.13
2022-08-23T14:36:34.638Z,2.13
2022-08-23T14:39:06.844Z,2.07
2022-08-23T14:41:38.987Z,2.73
2022-08-23T14:44:10.975Z,2.53
2022-08-23T14:46:45.486Z,2.30
2022-08-23T14:49:20.541Z,2.87
2022-08-23T14:51:52.784Z,3.43
2022-08-23T14:54:26.402Z,2.63
2022-08-23T14:56:58.676Z,2.80
2022-08-23T14:59:30.994Z,2.30
2022-08-23T15:02:05.155Z,2.83
2022-08-23T15:04:40.341Z,2.10
2022-08-23T15:07:20.189Z,2.47
2022-08-23T15:09:56.387Z,2.30
2022-08-23T15:15:21.895Z,2.80
2022-08-23T15:17:57.443Z,2.70
2022-08-23T15:20:35.735Z,2.63
2022-08-23T15:23:09.728Z,2.80
2022-08-23T15:25:44.019Z,4.10
2022-08-23T15:28:18.547Z,2.37
2022-08-23T15:30:52.269Z,2.63
2022-08-23T15:33:30.705Z,5.90
2022-08-23T15:36:05.319Z,3.80
2022-08-23T15:38:44.116Z,3.30
2022-08-23T15:41:19.046Z,2.43
2022-08-23T15:43:51.396Z,2.40
2022-08-23T15:46:23.907Z,2.90
2022-08-23T15:49:02.126Z,2.87
2022-08-23T15:51:42.309Z,3.80
2022-08-23T15:54:14.722Z,2.50
2022-08-23T15:56:50.081Z,2.33
2022-08-23T15:59:24.281Z,2.37
2022-08-23T16:01:56.626Z,2.63
2022-08-23T16:04:35.559Z,2.53
2022-08-23T16:07:13.472Z,2.63
2022-08-23T16:09:47.290Z,5.03
2022-08-23T16:12:19.833Z,2.60
2022-08-23T16:14:52.204Z,2.47
2022-08-23T16:17:24.855Z,2.53
2022-08-23T16:19:57.378Z,2.50
2022-08-23T16:22:29.830Z,2.23
2022-08-23T16:25:01.951Z,2.30
2022-08-23T16:27:35.002Z,2.47
2022-08-23T16:30:08.274Z,2.43
2022-08-23T16:32:45.061Z,2.90
2022-08-23T16:35:18.323Z,5.93
2022-08-23T16:37:50.772Z,2.90
2022-08-23T16:40:23.115Z,2.60
2022-08-23T16:42:56.451Z,2.63
2022-08-23T16:45:28.603Z,2.50
2022-08-23T16:48:00.862Z,3.70
2022-08-23T16:50:33.397Z,2.73
2022-08-23T16:53:07.364Z,2.40
2022-08-23T16:55:40.276Z,2.90
2022-08-23T16:58:12.482Z,8.43
2022-08-23T17:00:45.455Z,4.00
2022-08-23T17:03:19.250Z,5.60
2022-08-23T17:05:51.486Z,2.30
2022-08-23T17:08:23.532Z,5.03
2022-08-23T17:10:57.996Z,2.60
2022-08-23T17:13:34.488Z,3.03
2022-08-23T17:16:07.830Z,2.30
2022-08-23T17:18:41.527Z,2.80
2022-08-23T17:21:13.635Z,2.83
2022-08-23T17:23:45.920Z,3.17
2022-08-23T17:26:18.504Z,2.83
2022-08-23T17:28:51.500Z,3.60
2022-08-23T17:31:24.767Z,5.43
2022-08-23T17:34:03.320Z,2.80
2022-08-23T17:36:49.149Z,3.53
2022-08-23T17:39:28.932Z,3.33
2022-08-23T17:42:01.704Z,5.20
2022-08-23T17:44:35.556Z,2.67
2022-08-23T17:47:15.039Z,3.33
2022-08-23T17:49:49.437Z,2.50
2022-08-23T17:52:21.757Z,3.43
2022-08-23T17:54:54.783Z,5.10
2022-08-23T17:57:27.488Z,3.20
2022-08-23T18:00:03.579Z,3.43
2022-08-23T18:02:38.170Z,4.13
2022-08-23T18:05:11.924Z,2.53
2022-08-23T18:07:45.113Z,4.23
2022-08-23T18:10:17.628Z,2.70
2022-08-23T18:12:49.877Z,2.40
2022-08-23T18:15:21.943Z,3.00
2022-08-23T18:17:56.398Z,3.93
2022-08-23T18:20:30.979Z,2.77
2022-08-23T18:23:04.881Z,3.17
2022-08-23T18:25:37.090Z,2.83
2022-08-23T18:28:11.152Z,2.70
2022-08-23T18:30:49.629Z,4.33
2022-08-23T18:33:25.254Z,2.80
2022-08-23T18:35:57.838Z,3.20
2022-08-23T18:38:30.758Z,3.50
2022-08-23T18:41:02.989Z,3.80
2022-08-23T18:43:37.585Z,3.37
2022-08-23T18:46:11.758Z,4.00
2022-08-23T18:48:52.683Z,3.90
2022-08-23T18:51:26.175Z,3.30
2022-08-23T18:53:59.819Z,2.70
2022-08-23T18:56:32.549Z,4.50
2022-08-23T18:59:06.394Z,4.67
2022-08-23T19:01:40.861Z,4.63
2022-08-23T19:04:14.112Z,4.07
2022-08-23T19:06:49.044Z,3.70
2022-08-23T19:09:26.558Z,3.40
2022-08-23T19:12:00.604Z,4.97
2022-08-23T19:14:35.682Z,3.20
2022-08-23T19:17:10.505Z,3.27
2022-08-23T19:19:42.820Z,3.50
2022-08-23T19:22:15.371Z,3.53
2022-08-23T19:24:47.628Z,5.73
2022-08-23T19:27:19.725Z,3.20
2022-08-23T19:29:51.973Z,4.33
2022-08-23T19:32:24.912Z,3.37
2022-08-23T19:34:57.336Z,3.37
2022-08-23T19:37:29.415Z,3.43
2022-08-23T19:40:02.177Z,2.97
2022-08-23T19:42:37.722Z,3.43
2022-08-23T19:45:10.872Z,4.07
2022-08-23T19:47:43.778Z,7.53
2022-08-23T19:50:16.818Z,3.70
2022-08-23T19:52:57.718Z,4.10
2022-08-23T19:55:31.573Z,3.80
2022-08-23T19:58:04.462Z,3.70
2022-08-23T20:00:37.422Z,3.87
2022-08-23T20:03:11.800Z,4.53
2022-08-23T20:05:43.900Z,3.90
2022-08-23T20:08:16.134Z,3.77
2022-08-23T20:10:48.228Z,5.43
2022-08-23T20:13:21.719Z,3.93
2022-08-23T20:15:56.316Z,4.27
2022-08-23T20:18:28.667Z,4.10
2022-08-23T20:21:01.027Z,3.67
2022-08-23T20:23:51.815Z,4.00
2022-08-23T20:26:48.807Z,4.50
2022-08-23T20:29:22.840Z,3.97
2022-08-23T20:31:57.862Z,4.07
2022-08-23T20:34:31.138Z,4.93
2022-08-23T20:37:05.226Z,4.70
2022-08-23T20:39:37.983Z,3.63
2022-08-23T20:42:10.057Z,8.43
2022-08-23T20:44:42.111Z,5.40
2022-08-23T20:47:14.922Z,4.67
2022-08-23T20:49:47.114Z,5.70
2022-08-23T20:52:19.688Z,4.10
2022-08-23T20:54:52.342Z,4.77
2022-08-23T20:57:24.589Z,5.53
2022-08-23T21:00:02.798Z,6.93
2022-08-23T21:02:35.739Z,5.20
2022-08-23T21:05:08.158Z,4.33
2022-08-23T21:07:40.785Z,6.30
2022-08-23T21:10:14.497Z,4.97
2022-08-23T21:12:48.294Z,4.97
2022-08-23T21:15:20.641Z,4.80
2022-08-23T21:17:52.763Z,4.53
2022-08-23T21:20:25.086Z,5.57
2022-08-23T21:22:58.027Z,5.73
2022-08-23T21:25:30.526Z,5.23
2022-08-23T21:28:04.426Z,4.83
2022-08-23T21:30:36.842Z,5.80
2022-08-23T21:33:09.041Z,6.60
2022-08-23T21:35:41.239Z,5.87
2022-08-23T21:38:14.125Z,4.80
2022-08-23T21:40:46.389Z,5.47
2022-08-23T21:43:40.047Z,5.37
2022-08-23T21:46:12.145Z,5.17
2022-08-23T21:48:44.316Z,5.80
2022-08-23T21:51:16.350Z,4.50
2022-08-23T21:53:48.505Z,5.13
2022-08-23T21:56:21.628Z,5.67
2022-08-23T21:59:01.538Z,5.07
2022-08-23T22:01:36.855Z,4.53
2022-08-23T22:04:13.215Z,5.23
2022-08-23T22:06:47.207Z,5.87
2022-08-23T22:09:25.710Z,5.80
2022-08-23T22:12:00.381Z,5.73
2022-08-23T22:14:32.750Z,4.83
2022-08-23T22:17:05.370Z,7.67
2022-08-23T22:19:37.576Z,7.43
2022-08-23T22:22:09.984Z,7.60
2022-08-23T22:24:42.383Z,5.50
2022-08-23T22:27:14.555Z,6.93
2022-08-23T22:29:46.704Z,6.63
2022-08-23T22:32:21.104Z,7.10
2022-08-23T22:34:53.926Z,6.70
2022-08-23T22:37:26.118Z,6.07
2022-08-23T22:39:58.870Z,6.33
2022-08-23T22:42:33.634Z,6.70
2022-08-23T22:45:08.827Z,6.20
2022-08-23T22:47:41.662Z,6.13
2022-08-23T22:50:14.999Z,5.97
2022-08-23T22:52:47.235Z,6.13
2022-08-23T22:55:19.438Z,5.63
2022-08-23T22:57:52.269Z,5.27
2022-08-23T23:00:24.626Z,4.90
2022-08-23T23:02:56.763Z,5.00
2022-08-23T23:05:29.073Z,4.63
2022-08-23T23:08:22.151Z,6.20
2022-08-23T23:11:04.625Z,4.97
2022-08-23T23:13:40.384Z,5.13
2022-08-23T23:16:15.380Z,5.10
2022-08-23T23:19:12.619Z,4.90
2022-08-23T23:22:06.554Z,4.17
2022-08-23T23:24:40.147Z,5.10
2022-08-23T23:27:12.229Z,4.73
2022-08-23T23:29:44.373Z,4.97
2022-08-23T23:32:18.182Z,4.83
2022-08-23T23:34:51.844Z,4.93
2022-08-23T23:37:24.225Z,4.90
2022-08-23T23:39:56.467Z,4.50
2022-08-23T23:42:29.572Z,5.27
2022-08-23T23:45:02.853Z,4.87
2022-08-23T23:47:36.000Z,4.40
2022-08-23T23:50:09.680Z,4.30
2022-08-23T23:52:42.836Z,4.40
2022-08-23T23:55:17.704Z,3.90
2022-08-23T23:57:51.251Z,4.50
